sensor_id;sensor_type;location;lat;lon;timestamp;temperature;humidity
68746;SHT31;66104;45.456;11.064;2023-03-17T00:01:07;8.49;49.70
68746;SHT31;66104;45.456;11.064;2023-03-17T00:03:45;8.48;49.82
68746;SHT31;66104;45.456;11.064;2023-03-17T00:06:23;8.45;49.84
68746;SHT31;66104;45.456;11.064;2023-03-17T00:09:03;8.43;49.85
68746;SHT31;66104;45.456;11.064;2023-03-17T00:11:45;8.38;49.91
68746;SHT31;66104;45.456;11.064;2023-03-17T00:14:22;8.36;50.01
68746;SHT31;66104;45.456;11.064;2023-03-17T00:16:58;8.33;50.01
68746;SHT31;66104;45.456;11.064;2023-03-17T00:19:35;8.28;50.03
68746;SHT31;66104;45.456;11.064;2023-03-17T00:22:15;8.24;50.00
68746;SHT31;66104;45.456;11.064;2023-03-17T00:24:53;8.22;50.04
68746;SHT31;66104;45.456;11.064;2023-03-17T00:27:30;8.19;49.96
68746;SHT31;66104;45.456;11.064;2023-03-17T00:30:10;8.17;50.03
68746;SHT31;66104;45.456;11.064;2023-03-17T00:32:52;8.16;50.17
68746;SHT31;66104;45.456;11.064;2023-03-17T00:35:31;8.15;50.25
68746;SHT31;66104;45.456;11.064;2023-03-17T00:38:09;8.13;50.24
68746;SHT31;66104;45.456;11.064;2023-03-17T00:40:50;8.10;50.35
68746;SHT31;66104;45.456;11.064;2023-03-17T00:43:27;8.03;50.49
68746;SHT31;66104;45.456;11.064;2023-03-17T00:46:07;7.98;50.52
68746;SHT31;66104;45.456;11.064;2023-03-17T00:48:45;7.99;50.59
68746;SHT31;66104;45.456;11.064;2023-03-17T00:51:22;7.99;50.57
68746;SHT31;66104;45.456;11.064;2023-03-17T00:53:59;8.01;50.40
68746;SHT31;66104;45.456;11.064;2023-03-17T00:56:36;8.00;50.39
68746;SHT31;66104;45.456;11.064;2023-03-17T00:59:16;7.98;50.42
68746;SHT31;66104;45.456;11.064;2023-03-17T01:01:59;7.93;50.56
68746;SHT31;66104;45.456;11.064;2023-03-17T01:04:35;7.93;50.58
68746;SHT31;66104;45.456;11.064;2023-03-17T01:07:20;7.91;50.46
68746;SHT31;66104;45.456;11.064;2023-03-17T01:09:58;7.89;50.43
68746;SHT31;66104;45.456;11.064;2023-03-17T01:12:41;7.89;50.37
68746;SHT31;66104;45.456;11.064;2023-03-17T01:15:17;7.88;50.41
68746;SHT31;66104;45.456;11.064;2023-03-17T01:17:56;7.89;50.40
68746;SHT31;66104;45.456;11.064;2023-03-17T01:20:33;7.89;50.40
68746;SHT31;66104;45.456;11.064;2023-03-17T01:23:10;7.87;50.40
68746;SHT31;66104;45.456;11.064;2023-03-17T01:25:47;7.83;50.38
68746;SHT31;66104;45.456;11.064;2023-03-17T01:28:24;7.81;50.38
68746;SHT31;66104;45.456;11.064;2023-03-17T01:31:00;7.82;50.43
68746;SHT31;66104;45.456;11.064;2023-03-17T01:33:37;7.82;50.33
68746;SHT31;66104;45.456;11.064;2023-03-17T01:36:14;7.81;50.22
68746;SHT31;66104;45.456;11.064;2023-03-17T01:38:51;7.82;50.13
68746;SHT31;66104;45.456;11.064;2023-03-17T01:41:27;7.84;49.93
68746;SHT31;66104;45.456;11.064;2023-03-17T01:44:08;7.83;49.97
68746;SHT31;66104;45.456;11.064;2023-03-17T01:46:48;7.84;49.89
68746;SHT31;66104;45.456;11.064;2023-03-17T01:49:26;7.81;49.94
68746;SHT31;66104;45.456;11.064;2023-03-17T01:52:08;7.78;50.00
68746;SHT31;66104;45.456;11.064;2023-03-17T01:54:51;7.76;49.97
68746;SHT31;66104;45.456;11.064;2023-03-17T01:57:33;7.75;50.00
68746;SHT31;66104;45.456;11.064;2023-03-17T02:00:17;7.76;49.90
68746;SHT31;66104;45.456;11.064;2023-03-17T02:02:56;7.78;49.86
68746;SHT31;66104;45.456;11.064;2023-03-17T02:05:33;7.76;49.81
68746;SHT31;66104;45.456;11.064;2023-03-17T02:08:12;7.77;49.77
68746;SHT31;66104;45.456;11.064;2023-03-17T02:10:48;7.77;49.53
68746;SHT31;66104;45.456;11.064;2023-03-17T02:13:26;7.75;49.51
68746;SHT31;66104;45.456;11.064;2023-03-17T02:16:05;7.75;49.47
68746;SHT31;66104;45.456;11.064;2023-03-17T02:18:47;7.74;49.43
68746;SHT31;66104;45.456;11.064;2023-03-17T02:21:33;7.72;49.49
68746;SHT31;66104;45.456;11.064;2023-03-17T02:24:17;7.70;49.43
68746;SHT31;66104;45.456;11.064;2023-03-17T02:27:02;7.69;49.39
68746;SHT31;66104;45.456;11.064;2023-03-17T02:29:43;7.69;49.42
68746;SHT31;66104;45.456;11.064;2023-03-17T02:32:20;7.68;49.37
68746;SHT31;66104;45.456;11.064;2023-03-17T02:34:56;7.68;49.39
68746;SHT31;66104;45.456;11.064;2023-03-17T02:37:32;7.68;49.32
68746;SHT31;66104;45.456;11.064;2023-03-17T02:40:12;7.67;49.23
68746;SHT31;66104;45.456;11.064;2023-03-17T02:42:48;7.67;49.14
68746;SHT31;66104;45.456;11.064;2023-03-17T02:45:28;7.67;49.09
68746;SHT31;66104;45.456;11.064;2023-03-17T02:48:06;7.63;49.16
68746;SHT31;66104;45.456;11.064;2023-03-17T02:50:43;7.60;49.17
68746;SHT31;66104;45.456;11.064;2023-03-17T02:53:21;7.58;49.14
68746;SHT31;66104;45.456;11.064;2023-03-17T02:55:57;7.58;49.03
68746;SHT31;66104;45.456;11.064;2023-03-17T02:58:35;7.57;49.01
68746;SHT31;66104;45.456;11.064;2023-03-17T03:01:12;7.58;49.05
68746;SHT31;66104;45.456;11.064;2023-03-17T03:03:49;7.57;48.94
68746;SHT31;66104;45.456;11.064;2023-03-17T03:06:26;7.55;48.90
68746;SHT31;66104;45.456;11.064;2023-03-17T03:09:03;7.55;48.82
68746;SHT31;66104;45.456;11.064;2023-03-17T03:11:40;7.53;48.90
68746;SHT31;66104;45.456;11.064;2023-03-17T03:14:17;7.53;48.82
68746;SHT31;66104;45.456;11.064;2023-03-17T03:16:53;7.50;48.82
68746;SHT31;66104;45.456;11.064;2023-03-17T03:19:29;7.49;48.81
68746;SHT31;66104;45.456;11.064;2023-03-17T03:22:06;7.47;48.86
68746;SHT31;66104;45.456;11.064;2023-03-17T03:24:44;7.47;48.97
68746;SHT31;66104;45.456;11.064;2023-03-17T03:27:21;7.47;48.79
68746;SHT31;66104;45.456;11.064;2023-03-17T03:29:58;7.47;48.84
68746;SHT31;66104;45.456;11.064;2023-03-17T03:32:36;7.47;48.78
68746;SHT31;66104;45.456;11.064;2023-03-17T03:35:13;7.46;48.65
68746;SHT31;66104;45.456;11.064;2023-03-17T03:37:50;7.46;48.53
68746;SHT31;66104;45.456;11.064;2023-03-17T03:40:27;7.46;48.43
68746;SHT31;66104;45.456;11.064;2023-03-17T03:43:04;7.45;48.43
68746;SHT31;66104;45.456;11.064;2023-03-17T03:45:51;7.44;48.42
68746;SHT31;66104;45.456;11.064;2023-03-17T03:48:27;7.44;48.32
68746;SHT31;66104;45.456;11.064;2023-03-17T03:51:05;7.43;48.31
68746;SHT31;66104;45.456;11.064;2023-03-17T03:53:41;7.42;48.30
68746;SHT31;66104;45.456;11.064;2023-03-17T03:56:18;7.40;48.38
68746;SHT31;66104;45.456;11.064;2023-03-17T03:58:55;7.40;48.40
68746;SHT31;66104;45.456;11.064;2023-03-17T04:01:31;7.37;48.37
68746;SHT31;66104;45.456;11.064;2023-03-17T04:04:09;7.36;48.27
68746;SHT31;66104;45.456;11.064;2023-03-17T04:06:46;7.37;48.23
68746;SHT31;66104;45.456;11.064;2023-03-17T04:09:22;7.35;48.26
68746;SHT31;66104;45.456;11.064;2023-03-17T04:12:00;7.33;48.26
68746;SHT31;66104;45.456;11.064;2023-03-17T04:14:39;7.34;48.23
68746;SHT31;66104;45.456;11.064;2023-03-17T04:17:15;7.33;48.26
68746;SHT31;66104;45.456;11.064;2023-03-17T04:19:51;7.34;48.31
68746;SHT31;66104;45.456;11.064;2023-03-17T04:22:28;7.35;48.28
68746;SHT31;66104;45.456;11.064;2023-03-17T04:25:05;7.34;48.33
68746;SHT31;66104;45.456;11.064;2023-03-17T04:27:44;7.33;48.45
68746;SHT31;66104;45.456;11.064;2023-03-17T04:30:20;7.31;48.50
68746;SHT31;66104;45.456;11.064;2023-03-17T04:32:58;7.29;48.60
68746;SHT31;66104;45.456;11.064;2023-03-17T04:35:35;7.28;48.57
68746;SHT31;66104;45.456;11.064;2023-03-17T04:38:12;7.27;48.55
68746;SHT31;66104;45.456;11.064;2023-03-17T04:40:50;7.25;48.56
68746;SHT31;66104;45.456;11.064;2023-03-17T04:43:27;7.24;48.66
68746;SHT31;66104;45.456;11.064;2023-03-17T04:46:04;7.23;48.58
68746;SHT31;66104;45.456;11.064;2023-03-17T04:48:41;7.21;48.51
68746;SHT31;66104;45.456;11.064;2023-03-17T04:51:18;7.19;48.49
68746;SHT31;66104;45.456;11.064;2023-03-17T04:53:55;7.18;48.38
68746;SHT31;66104;45.456;11.064;2023-03-17T04:56:32;7.16;48.38
68746;SHT31;66104;45.456;11.064;2023-03-17T04:59:09;7.15;48.34
68746;SHT31;66104;45.456;11.064;2023-03-17T05:01:45;7.15;48.34
68746;SHT31;66104;45.456;11.064;2023-03-17T05:04:22;7.15;48.35
68746;SHT31;66104;45.456;11.064;2023-03-17T05:07:00;7.16;48.28
68746;SHT31;66104;45.456;11.064;2023-03-17T05:09:36;7.17;48.41
68746;SHT31;66104;45.456;11.064;2023-03-17T05:12:14;7.20;48.39
68746;SHT31;66104;45.456;11.064;2023-03-17T05:14:51;7.20;48.41
68746;SHT31;66104;45.456;11.064;2023-03-17T05:17:28;7.19;48.38
68746;SHT31;66104;45.456;11.064;2023-03-17T05:20:07;7.18;48.44
68746;SHT31;66104;45.456;11.064;2023-03-17T05:22:47;7.17;48.45
68746;SHT31;66104;45.456;11.064;2023-03-17T05:25:24;7.12;48.41
68746;SHT31;66104;45.456;11.064;2023-03-17T05:28:01;7.10;48.29
68746;SHT31;66104;45.456;11.064;2023-03-17T05:30:38;7.10;48.28
68746;SHT31;66104;45.456;11.064;2023-03-17T05:33:16;7.10;48.10
68746;SHT31;66104;45.456;11.064;2023-03-17T05:35:53;7.12;48.17
68746;SHT31;66104;45.456;11.064;2023-03-17T05:38:30;7.14;48.18
68746;SHT31;66104;45.456;11.064;2023-03-17T05:41:07;7.16;48.16
68746;SHT31;66104;45.456;11.064;2023-03-17T05:43:44;7.17;48.10
68746;SHT31;66104;45.456;11.064;2023-03-17T05:46:20;7.18;48.06
68746;SHT31;66104;45.456;11.064;2023-03-17T05:48:57;7.19;48.09
68746;SHT31;66104;45.456;11.064;2023-03-17T05:51:34;7.19;48.09
68746;SHT31;66104;45.456;11.064;2023-03-17T05:54:11;7.21;48.15
68746;SHT31;66104;45.456;11.064;2023-03-17T05:56:48;7.29;48.10
68746;SHT31;66104;45.456;11.064;2023-03-17T05:59:26;7.40;47.93
68746;SHT31;66104;45.456;11.064;2023-03-17T06:02:03;7.50;47.94
68746;SHT31;66104;45.456;11.064;2023-03-17T06:04:41;7.60;47.77
68746;SHT31;66104;45.456;11.064;2023-03-17T06:07:18;7.65;47.58
68746;SHT31;66104;45.456;11.064;2023-03-17T06:10:06;7.68;47.38
68746;SHT31;66104;45.456;11.064;2023-03-17T06:12:47;7.74;47.22
68746;SHT31;66104;45.456;11.064;2023-03-17T06:15:24;7.79;47.24
68746;SHT31;66104;45.456;11.064;2023-03-17T06:18:01;7.85;47.04
68746;SHT31;66104;45.456;11.064;2023-03-17T06:20:38;7.92;46.94
68746;SHT31;66104;45.456;11.064;2023-03-17T06:23:14;8.00;46.82
68746;SHT31;66104;45.456;11.064;2023-03-17T06:25:51;8.09;46.69
68746;SHT31;66104;45.456;11.064;2023-03-17T06:28:29;8.19;46.31
68746;SHT31;66104;45.456;11.064;2023-03-17T06:31:06;8.30;46.09
68746;SHT31;66104;45.456;11.064;2023-03-17T06:33:43;8.39;45.69
68746;SHT31;66104;45.456;11.064;2023-03-17T06:36:19;8.48;45.56
68746;SHT31;66104;45.456;11.064;2023-03-17T06:38:56;8.58;45.71
68746;SHT31;66104;45.456;11.064;2023-03-17T06:41:33;8.67;45.58
68746;SHT31;66104;45.456;11.064;2023-03-17T06:44:09;8.74;45.48
68746;SHT31;66104;45.456;11.064;2023-03-17T06:46:46;8.79;45.72
68746;SHT31;66104;45.456;11.064;2023-03-17T06:49:23;8.84;45.67
68746;SHT31;66104;45.456;11.064;2023-03-17T06:52:00;8.88;45.60
68746;SHT31;66104;45.456;11.064;2023-03-17T06:54:38;8.90;45.81
68746;SHT31;66104;45.456;11.064;2023-03-17T06:57:16;8.93;46.30
68746;SHT31;66104;45.456;11.064;2023-03-17T06:59:54;9.01;46.59
68746;SHT31;66104;45.456;11.064;2023-03-17T07:02:31;9.10;46.10
68746;SHT31;66104;45.456;11.064;2023-03-17T07:05:09;9.17;45.87
68746;SHT31;66104;45.456;11.064;2023-03-17T07:07:46;9.24;46.08
68746;SHT31;66104;45.456;11.064;2023-03-17T07:10:23;9.34;46.11
68746;SHT31;66104;45.456;11.064;2023-03-17T07:13:01;9.46;46.01
68746;SHT31;66104;45.456;11.064;2023-03-17T07:15:38;9.59;45.96
68746;SHT31;66104;45.456;11.064;2023-03-17T07:18:16;9.71;46.05
68746;SHT31;66104;45.456;11.064;2023-03-17T07:20:53;9.85;45.93
68746;SHT31;66104;45.456;11.064;2023-03-17T07:23:30;9.94;46.04
68746;SHT31;66104;45.456;11.064;2023-03-17T07:26:07;9.99;45.97
68746;SHT31;66104;45.456;11.064;2023-03-17T07:28:44;10.05;46.08
68746;SHT31;66104;45.456;11.064;2023-03-17T07:31:20;10.15;46.09
68746;SHT31;66104;45.456;11.064;2023-03-17T07:33:57;10.25;46.00
68746;SHT31;66104;45.456;11.064;2023-03-17T07:36:34;10.33;46.07
68746;SHT31;66104;45.456;11.064;2023-03-17T07:39:10;10.46;46.19
68746;SHT31;66104;45.456;11.064;2023-03-17T07:41:47;10.53;45.95
68746;SHT31;66104;45.456;11.064;2023-03-17T07:44:25;10.61;46.09
68746;SHT31;66104;45.456;11.064;2023-03-17T07:47:02;10.72;45.67
68746;SHT31;66104;45.456;11.064;2023-03-17T07:49:42;10.85;44.44
68746;SHT31;66104;45.456;11.064;2023-03-17T07:52:19;10.99;43.97
68746;SHT31;66104;45.456;11.064;2023-03-17T07:54:57;11.13;42.77
68746;SHT31;66104;45.456;11.064;2023-03-17T07:57:36;11.24;41.79
68746;SHT31;66104;45.456;11.064;2023-03-17T08:00:17;11.38;41.95
68746;SHT31;66104;45.456;11.064;2023-03-17T08:03:03;11.51;41.52
68746;SHT31;66104;45.456;11.064;2023-03-17T08:05:41;11.63;41.02
68746;SHT31;66104;45.456;11.064;2023-03-17T08:08:23;11.72;39.95
68746;SHT31;66104;45.456;11.064;2023-03-17T08:11:02;11.85;38.65
68746;SHT31;66104;45.456;11.064;2023-03-17T08:13:39;11.95;37.41
68746;SHT31;66104;45.456;11.064;2023-03-17T08:16:15;12.04;36.40
68746;SHT31;66104;45.456;11.064;2023-03-17T08:18:52;12.12;36.57
68746;SHT31;66104;45.456;11.064;2023-03-17T08:21:28;12.22;35.85
68746;SHT31;66104;45.456;11.064;2023-03-17T08:24:06;12.33;35.90
68746;SHT31;66104;45.456;11.064;2023-03-17T08:26:43;12.43;36.22
68746;SHT31;66104;45.456;11.064;2023-03-17T08:29:22;12.48;35.99
68746;SHT31;66104;45.456;11.064;2023-03-17T08:31:58;12.57;35.25
68746;SHT31;66104;45.456;11.064;2023-03-17T08:34:37;12.61;35.59
68746;SHT31;66104;45.456;11.064;2023-03-17T08:37:14;12.68;35.46
68746;SHT31;66104;45.456;11.064;2023-03-17T08:39:53;12.75;35.57
68746;SHT31;66104;45.456;11.064;2023-03-17T08:42:29;12.83;35.33
68746;SHT31;66104;45.456;11.064;2023-03-17T08:45:07;12.90;35.09
68746;SHT31;66104;45.456;11.064;2023-03-17T08:47:46;12.95;34.96
68746;SHT31;66104;45.456;11.064;2023-03-17T08:50:23;13.02;35.37
68746;SHT31;66104;45.456;11.064;2023-03-17T08:53:00;13.07;35.33
68746;SHT31;66104;45.456;11.064;2023-03-17T08:55:38;13.10;35.28
68746;SHT31;66104;45.456;11.064;2023-03-17T08:58:16;13.13;35.18
68746;SHT31;66104;45.456;11.064;2023-03-17T09:00:53;13.16;35.39
68746;SHT31;66104;45.456;11.064;2023-03-17T09:03:32;13.19;35.20
68746;SHT31;66104;45.456;11.064;2023-03-17T09:06:10;13.21;34.82
68746;SHT31;66104;45.456;11.064;2023-03-17T09:08:46;13.23;34.34
68746;SHT31;66104;45.456;11.064;2023-03-17T09:11:24;13.24;34.02
68746;SHT31;66104;45.456;11.064;2023-03-17T09:14:02;13.26;33.49
68746;SHT31;66104;45.456;11.064;2023-03-17T09:16:40;13.26;33.85
68746;SHT31;66104;45.456;11.064;2023-03-17T09:19:17;13.28;34.20
68746;SHT31;66104;45.456;11.064;2023-03-17T09:21:55;13.28;33.94
68746;SHT31;66104;45.456;11.064;2023-03-17T09:24:33;13.32;34.25
68746;SHT31;66104;45.456;11.064;2023-03-17T09:27:10;13.37;34.29
68746;SHT31;66104;45.456;11.064;2023-03-17T09:29:46;13.41;33.74
68746;SHT31;66104;45.456;11.064;2023-03-17T09:32:22;13.42;33.43
68746;SHT31;66104;45.456;11.064;2023-03-17T09:34:59;13.45;33.95
68746;SHT31;66104;45.456;11.064;2023-03-17T09:37:36;13.53;33.65
68746;SHT31;66104;45.456;11.064;2023-03-17T09:40:14;13.62;33.65
68746;SHT31;66104;45.456;11.064;2023-03-17T09:43:02;13.64;32.32
68746;SHT31;66104;45.456;11.064;2023-03-17T09:45:50;13.64;32.71
68746;SHT31;66104;45.456;11.064;2023-03-17T09:48:33;13.67;32.89
68746;SHT31;66104;45.456;11.064;2023-03-17T09:51:28;13.70;31.81
68746;SHT31;66104;45.456;11.064;2023-03-17T09:54:09;13.65;32.13
68746;SHT31;66104;45.456;11.064;2023-03-17T09:57:02;13.67;32.86
68746;SHT31;66104;45.456;11.064;2023-03-17T09:59:49;13.71;32.91
68746;SHT31;66104;45.456;11.064;2023-03-17T10:02:35;13.77;32.62
68746;SHT31;66104;45.456;11.064;2023-03-17T10:05:17;13.84;32.75
68746;SHT31;66104;45.456;11.064;2023-03-17T10:07:58;13.91;32.61
68746;SHT31;66104;45.456;11.064;2023-03-17T10:10:58;13.99;32.44
68746;SHT31;66104;45.456;11.064;2023-03-17T10:13:46;14.05;32.21
68746;SHT31;66104;45.456;11.064;2023-03-17T10:16:36;14.09;32.05
68746;SHT31;66104;45.456;11.064;2023-03-17T10:19:23;14.16;31.82
68746;SHT31;66104;45.456;11.064;2023-03-17T10:22:07;14.23;31.99
68746;SHT31;66104;45.456;11.064;2023-03-17T10:24:52;14.28;32.32
68746;SHT31;66104;45.456;11.064;2023-03-17T10:27:33;14.34;32.53
68746;SHT31;66104;45.456;11.064;2023-03-17T10:32:53;14.49;32.62
68746;SHT31;66104;45.456;11.064;2023-03-17T10:35:35;14.56;32.30
68746;SHT31;66104;45.456;11.064;2023-03-17T10:38:16;14.63;32.36
68746;SHT31;66104;45.456;11.064;2023-03-17T10:40:56;14.68;32.52
68746;SHT31;66104;45.456;11.064;2023-03-17T10:43:41;14.76;32.57
68746;SHT31;66104;45.456;11.064;2023-03-17T10:46:22;14.84;31.92
68746;SHT31;66104;45.456;11.064;2023-03-17T10:49:01;14.90;31.56
68746;SHT31;66104;45.456;11.064;2023-03-17T10:51:51;14.94;31.63
68746;SHT31;66104;45.456;11.064;2023-03-17T10:54:28;14.96;31.83
68746;SHT31;66104;45.456;11.064;2023-03-17T10:57:12;14.98;31.85
68746;SHT31;66104;45.456;11.064;2023-03-17T10:59:49;14.98;31.79
68746;SHT31;66104;45.456;11.064;2023-03-17T11:02:28;15.00;32.08
68746;SHT31;66104;45.456;11.064;2023-03-17T11:05:18;15.06;32.31
68746;SHT31;66104;45.456;11.064;2023-03-17T11:08:07;15.11;32.33
68746;SHT31;66104;45.456;11.064;2023-03-17T11:10:52;15.15;32.40
68746;SHT31;66104;45.456;11.064;2023-03-17T11:13:29;15.20;32.22
68746;SHT31;66104;45.456;11.064;2023-03-17T11:16:09;15.28;32.41
68746;SHT31;66104;45.456;11.064;2023-03-17T11:18:55;15.36;32.00
68746;SHT31;66104;45.456;11.064;2023-03-17T11:21:37;15.40;31.65
68746;SHT31;66104;45.456;11.064;2023-03-17T11:24:26;15.42;31.70
68746;SHT31;66104;45.456;11.064;2023-03-17T11:27:11;15.46;31.86
68746;SHT31;66104;45.456;11.064;2023-03-17T11:30:03;15.52;31.98
68746;SHT31;66104;45.456;11.064;2023-03-17T11:32:54;15.59;31.89
68746;SHT31;66104;45.456;11.064;2023-03-17T11:35:44;15.67;32.08
68746;SHT31;66104;45.456;11.064;2023-03-17T11:38:28;15.72;32.16
68746;SHT31;66104;45.456;11.064;2023-03-17T11:44:20;15.69;31.72
68746;SHT31;66104;45.456;11.064;2023-03-17T11:47:32;15.68;32.52
68746;SHT31;66104;45.456;11.064;2023-03-17T11:50:31;15.75;33.69
68746;SHT31;66104;45.456;11.064;2023-03-17T11:53:22;15.84;33.17
68746;SHT31;66104;45.456;11.064;2023-03-17T11:56:27;15.87;32.83
68746;SHT31;66104;45.456;11.064;2023-03-17T11:59:24;15.85;32.94
68746;SHT31;66104;45.456;11.064;2023-03-17T12:02:14;15.89;32.91
68746;SHT31;66104;45.456;11.064;2023-03-17T12:04:59;15.95;33.24
68746;SHT31;66104;45.456;11.064;2023-03-17T12:07:42;16.01;32.87
68746;SHT31;66104;45.456;11.064;2023-03-17T12:10:24;16.06;33.00
68746;SHT31;66104;45.456;11.064;2023-03-17T12:13:09;16.14;33.05
68746;SHT31;66104;45.456;11.064;2023-03-17T12:15:52;16.18;32.97
68746;SHT31;66104;45.456;11.064;2023-03-17T12:18:35;16.25;32.65
68746;SHT31;66104;45.456;11.064;2023-03-17T12:21:21;16.33;32.21
68746;SHT31;66104;45.456;11.064;2023-03-17T12:24:07;16.41;32.08
68746;SHT31;66104;45.456;11.064;2023-03-17T12:26:50;16.47;32.26
68746;SHT31;66104;45.456;11.064;2023-03-17T12:29:36;16.53;31.95
68746;SHT31;66104;45.456;11.064;2023-03-17T12:32:19;16.53;31.62
68746;SHT31;66104;45.456;11.064;2023-03-17T12:35:07;16.51;31.58
68746;SHT31;66104;45.456;11.064;2023-03-17T12:38:01;16.55;31.77
68746;SHT31;66104;45.456;11.064;2023-03-17T12:40:56;16.63;31.27
68746;SHT31;66104;45.456;11.064;2023-03-17T12:44:01;16.62;31.68
68746;SHT31;66104;45.456;11.064;2023-03-17T12:47:10;16.68;31.52
68746;SHT31;66104;45.456;11.064;2023-03-17T12:50:09;16.73;31.30
68746;SHT31;66104;45.456;11.064;2023-03-17T12:53:20;16.78;31.40
68746;SHT31;66104;45.456;11.064;2023-03-17T12:56:06;16.82;31.26
68746;SHT31;66104;45.456;11.064;2023-03-17T12:58:53;16.84;31.22
68746;SHT31;66104;45.456;11.064;2023-03-17T13:01:38;16.87;30.85
68746;SHT31;66104;45.456;11.064;2023-03-17T13:04:27;16.88;30.80
68746;SHT31;66104;45.456;11.064;2023-03-17T13:07:07;16.87;30.44
68746;SHT31;66104;45.456;11.064;2023-03-17T13:09:50;16.86;30.46
68746;SHT31;66104;45.456;11.064;2023-03-17T13:13:07;16.83;30.05
68746;SHT31;66104;45.456;11.064;2023-03-17T13:16:04;16.80;30.49
68746;SHT31;66104;45.456;11.064;2023-03-17T13:19:17;16.80;30.56
68746;SHT31;66104;45.456;11.064;2023-03-17T13:25:25;16.76;30.28
68746;SHT31;66104;45.456;11.064;2023-03-17T13:28:23;16.75;30.32
68746;SHT31;66104;45.456;11.064;2023-03-17T13:31:15;16.75;30.38
68746;SHT31;66104;45.456;11.064;2023-03-17T13:34:10;16.75;30.34
68746;SHT31;66104;45.456;11.064;2023-03-17T13:39:53;16.76;30.08
68746;SHT31;66104;45.456;11.064;2023-03-17T13:42:48;16.78;30.19
68746;SHT31;66104;45.456;11.064;2023-03-17T13:45:41;16.82;30.56
68746;SHT31;66104;45.456;11.064;2023-03-17T13:48:29;16.85;29.92
68746;SHT31;66104;45.456;11.064;2023-03-17T13:51:11;16.86;30.05
68746;SHT31;66104;45.456;11.064;2023-03-17T13:53:56;16.88;29.87
68746;SHT31;66104;45.456;11.064;2023-03-17T13:56:50;16.91;29.45
68746;SHT31;66104;45.456;11.064;2023-03-17T13:59:34;16.92;29.27
68746;SHT31;66104;45.456;11.064;2023-03-17T14:02:29;16.92;29.30
68746;SHT31;66104;45.456;11.064;2023-03-17T14:05:16;16.98;29.25
68746;SHT31;66104;45.456;11.064;2023-03-17T14:07:59;17.06;29.59
68746;SHT31;66104;45.456;11.064;2023-03-17T14:10:48;17.10;29.39
68746;SHT31;66104;45.456;11.064;2023-03-17T14:13:30;17.09;28.91
68746;SHT31;66104;45.456;11.064;2023-03-17T14:16:19;17.07;29.18
68746;SHT31;66104;45.456;11.064;2023-03-17T14:19:10;17.07;29.36
68746;SHT31;66104;45.456;11.064;2023-03-17T14:21:54;17.09;29.06
68746;SHT31;66104;45.456;11.064;2023-03-17T14:24:52;17.08;28.68
68746;SHT31;66104;45.456;11.064;2023-03-17T14:27:37;17.08;28.94
68746;SHT31;66104;45.456;11.064;2023-03-17T14:30:18;17.08;28.81
68746;SHT31;66104;45.456;11.064;2023-03-17T14:33:00;17.05;28.86
68746;SHT31;66104;45.456;11.064;2023-03-17T14:35:55;17.05;29.07
68746;SHT31;66104;45.456;11.064;2023-03-17T14:38:33;17.00;28.77
68746;SHT31;66104;45.456;11.064;2023-03-17T14:41:18;16.89;28.99
68746;SHT31;66104;45.456;11.064;2023-03-17T14:43:57;16.83;28.88
68746;SHT31;66104;45.456;11.064;2023-03-17T14:46:36;16.78;28.94
68746;SHT31;66104;45.456;11.064;2023-03-17T14:49:15;16.77;28.99
68746;SHT31;66104;45.456;11.064;2023-03-17T14:51:53;16.75;28.93
68746;SHT31;66104;45.456;11.064;2023-03-17T14:54:32;16.73;28.92
68746;SHT31;66104;45.456;11.064;2023-03-17T14:57:13;16.70;28.76
68746;SHT31;66104;45.456;11.064;2023-03-17T14:59:59;16.63;28.45
68746;SHT31;66104;45.456;11.064;2023-03-17T15:02:58;16.57;29.13
68746;SHT31;66104;45.456;11.064;2023-03-17T15:05:46;16.56;29.06
68746;SHT31;66104;45.456;11.064;2023-03-17T15:11:34;16.56;29.15
68746;SHT31;66104;45.456;11.064;2023-03-17T15:14:17;16.55;29.11
68746;SHT31;66104;45.456;11.064;2023-03-17T15:16:59;16.54;29.25
68746;SHT31;66104;45.456;11.064;2023-03-17T15:19:38;16.54;29.28
68746;SHT31;66104;45.456;11.064;2023-03-17T15:22:22;16.47;29.61
68746;SHT31;66104;45.456;11.064;2023-03-17T15:25:19;16.38;29.32
68746;SHT31;66104;45.456;11.064;2023-03-17T15:28:05;16.29;29.53
68746;SHT31;66104;45.456;11.064;2023-03-17T15:30:48;16.23;29.64
68746;SHT31;66104;45.456;11.064;2023-03-17T15:33:31;16.18;29.73
68746;SHT31;66104;45.456;11.064;2023-03-17T15:36:11;16.15;30.01
68746;SHT31;66104;45.456;11.064;2023-03-17T15:39:01;16.09;30.19
68746;SHT31;66104;45.456;11.064;2023-03-17T15:41:40;16.05;30.30
68746;SHT31;66104;45.456;11.064;2023-03-17T15:44:18;16.03;30.45
68746;SHT31;66104;45.456;11.064;2023-03-17T15:46:55;16.02;30.82
68746;SHT31;66104;45.456;11.064;2023-03-17T15:49:32;16.00;30.92
68746;SHT31;66104;45.456;11.064;2023-03-17T15:52:13;15.98;31.02
68746;SHT31;66104;45.456;11.064;2023-03-17T15:54:54;15.96;31.28
68746;SHT31;66104;45.456;11.064;2023-03-17T15:57:33;15.94;31.44
68746;SHT31;66104;45.456;11.064;2023-03-17T16:00:22;15.92;31.65
68746;SHT31;66104;45.456;11.064;2023-03-17T16:03:02;15.90;31.74
68746;SHT31;66104;45.456;11.064;2023-03-17T16:05:47;15.87;32.16
68746;SHT31;66104;45.456;11.064;2023-03-17T16:08:24;15.83;32.45
68746;SHT31;66104;45.456;11.064;2023-03-17T16:11:00;15.81;32.24
68746;SHT31;66104;45.456;11.064;2023-03-17T16:13:40;15.75;32.28
68746;SHT31;66104;45.456;11.064;2023-03-17T16:16:19;15.71;32.67
68746;SHT31;66104;45.456;11.064;2023-03-17T16:19:05;15.66;33.06
68746;SHT31;66104;45.456;11.064;2023-03-17T16:21:50;15.60;32.88
68746;SHT31;66104;45.456;11.064;2023-03-17T16:24:27;15.55;33.06
68746;SHT31;66104;45.456;11.064;2023-03-17T16:27:07;15.48;33.14
68746;SHT31;66104;45.456;11.064;2023-03-17T16:29:47;15.43;33.36
68746;SHT31;66104;45.456;11.064;2023-03-17T16:32:23;15.37;33.47
68746;SHT31;66104;45.456;11.064;2023-03-17T16:35:00;15.32;33.78
68746;SHT31;66104;45.456;11.064;2023-03-17T16:37:43;15.26;33.94
68746;SHT31;66104;45.456;11.064;2023-03-17T16:40:23;15.22;34.09
68746;SHT31;66104;45.456;11.064;2023-03-17T16:43:04;15.17;34.25
68746;SHT31;66104;45.456;11.064;2023-03-17T16:45:56;15.15;34.47
68746;SHT31;66104;45.456;11.064;2023-03-17T16:48:34;15.13;34.39
68746;SHT31;66104;45.456;11.064;2023-03-17T16:51:10;15.09;34.32
68746;SHT31;66104;45.456;11.064;2023-03-17T16:53:47;15.06;34.16
68746;SHT31;66104;45.456;11.064;2023-03-17T16:56:24;15.03;34.21
68746;SHT31;66104;45.456;11.064;2023-03-17T16:59:02;15.01;34.29
68746;SHT31;66104;45.456;11.064;2023-03-17T17:01:40;14.99;34.41
68746;SHT31;66104;45.456;11.064;2023-03-17T17:04:17;14.94;34.51